createdAt,value
2022-08-23T00:00:29.238Z,6.27
2022-08-23T00:05:03.433Z,5.77
2022-08-23T00:09:11.718Z,5.63
2022-08-23T00:13:22.557Z,5.50
2022-08-23T00:17:34.441Z,4.83
2022-08-23T00:21:45.617Z,4.87
2022-08-23T00:25:54.835Z,5.43
2022-08-23T00:30:09.698Z,5.93
2022-08-23T00:34:19.142Z,6.00
2022-08-23T00:38:33.257Z,7.17
2022-08-23T00:43:06.440Z,7.20
2022-08-23T00:47:35.016Z,7.80
2022-08-23T00:51:52.738Z,7.63
2022-08-23T00:56:05.322Z,8.10
2022-08-23T01:00:16.221Z,7.13
2022-08-23T01:04:28.996Z,8.10
2022-08-23T01:08:40.094Z,7.10
2022-08-23T01:12:54.578Z,7.60
2022-08-23T01:17:07.260Z,8.63
2022-08-23T01:21:24.258Z,7.83
2022-08-23T01:25:36.660Z,8.47
2022-08-23T01:29:45.918Z,8.47
2022-08-23T01:33:59.859Z,8.87
2022-08-23T01:38:10.026Z,8.27
2022-08-23T01:42:21.739Z,9.60
2022-08-23T01:46:31.061Z,9.13
2022-08-23T01:50:40.567Z,9.30
2022-08-23T01:54:49.761Z,8.47
2022-08-23T01:59:01.000Z,8.27
2022-08-23T02:03:12.865Z,8.20
2022-08-23T02:07:22.577Z,7.93
2022-08-23T02:11:34.460Z,8.63
2022-08-23T02:15:47.337Z,8.53
2022-08-23T02:19:57.016Z,8.73
2022-08-23T02:24:08.077Z,9.10
2022-08-23T02:28:17.856Z,8.57
2022-08-23T02:32:28.718Z,9.17
2022-08-23T02:36:37.997Z,8.60
2022-08-23T02:40:47.437Z,8.50
2022-08-23T02:45:02.515Z,8.20
2022-08-23T02:49:13.838Z,8.57
2022-08-23T02:53:23.099Z,8.40
2022-08-23T02:57:32.341Z,7.97
2022-08-23T03:01:42.737Z,8.70
2022-08-23T03:05:53.598Z,9.00
2022-08-23T03:10:03.499Z,8.20
2022-08-23T03:14:13.484Z,8.57
2022-08-23T03:18:23.002Z,8.57
2022-08-23T03:22:34.121Z,7.77
2022-08-23T03:26:44.897Z,7.87
2022-08-23T03:30:54.558Z,8.57
2022-08-23T03:35:03.939Z,9.50
2022-08-23T03:39:22.182Z,9.70
2022-08-23T03:43:32.279Z,9.03
2022-08-23T03:47:43.780Z,9.83
2022-08-23T03:51:53.777Z,9.37
2022-08-23T03:56:08.479Z,9.27
2022-08-23T04:00:20.269Z,10.03
2022-08-23T04:04:30.621Z,10.80
2022-08-23T04:08:40.159Z,10.13
2022-08-23T04:12:53.099Z,10.60
2022-08-23T04:17:02.818Z,9.47
2022-08-23T04:21:19.060Z,10.57
2022-08-23T04:25:34.255Z,10.40
2022-08-23T04:29:47.419Z,10.70
2022-08-23T04:33:58.860Z,10.37
2022-08-23T04:38:24.210Z,11.03
2022-08-23T04:42:34.563Z,10.80
2022-08-23T04:46:46.141Z,11.23
2022-08-23T04:50:56.758Z,10.80
2022-08-23T04:55:11.998Z,10.50
2022-08-23T04:59:21.777Z,11.10
2022-08-23T05:03:33.759Z,11.03
2022-08-23T05:07:43.330Z,10.37
2022-08-23T05:11:53.120Z,9.90
2022-08-23T05:16:03.401Z,10.07
2022-08-23T05:20:14.897Z,10.50
2022-08-23T05:24:24.777Z,11.67
2022-08-23T05:33:06.918Z,11.17
2022-08-23T05:37:18.998Z,10.43
2022-08-23T05:41:37.789Z,8.57
2022-08-23T05:45:50.239Z,8.23
2022-08-23T05:49:59.926Z,7.70
2022-08-23T05:54:11.626Z,7.40
2022-08-23T05:58:21.128Z,6.43
2022-08-23T06:02:30.688Z,7.10
2022-08-23T06:06:42.084Z,7.80
2022-08-23T06:11:02.008Z,7.37
2022-08-23T06:15:12.463Z,8.07
2022-08-23T06:19:22.064Z,7.67
2022-08-23T06:23:32.790Z,8.03
2022-08-23T06:27:43.665Z,8.00
2022-08-23T06:31:55.088Z,8.00
2022-08-23T06:36:06.690Z,7.70
2022-08-23T06:40:17.894Z,7.80
2022-08-23T06:44:30.209Z,7.23
2022-08-23T06:48:39.992Z,8.90
2022-08-23T06:52:50.087Z,8.37
2022-08-23T06:57:00.791Z,7.33
2022-08-23T07:01:44.112Z,7.47
2022-08-23T07:05:53.446Z,6.23
2022-08-23T07:10:06.465Z,7.20
2022-08-23T07:14:18.205Z,6.83
2022-08-23T07:18:29.426Z,7.70
2022-08-23T07:22:38.865Z,7.67
2022-08-23T07:26:50.226Z,9.47
2022-08-23T07:36:01.963Z,8.47
2022-08-23T07:40:20.321Z,7.70
2022-08-23T07:44:31.890Z,8.80
2022-08-23T07:53:08.268Z,8.67
2022-08-23T07:57:17.586Z,8.53
2022-08-23T08:01:29.952Z,8.13
2022-08-23T08:05:39.749Z,7.80
2022-08-23T08:09:51.384Z,7.30
2022-08-23T08:14:01.106Z,8.17
2022-08-23T08:18:18.207Z,8.70
2022-08-23T08:22:27.728Z,8.37
2022-08-23T08:26:53.588Z,10.03
2022-08-23T08:31:06.632Z,9.60
2022-08-23T08:35:29.529Z,9.50
2022-08-23T08:39:46.279Z,8.23
2022-08-23T08:44:12.716Z,8.87
2022-08-23T08:48:26.827Z,8.70
2022-08-23T08:52:39.368Z,8.80
2022-08-23T08:56:53.366Z,8.47
2022-08-23T09:01:04.247Z,6.83
2022-08-23T09:05:16.489Z,8.33
2022-08-23T09:09:44.785Z,6.90
2022-08-23T09:14:38.245Z,7.33
2022-08-23T09:18:49.707Z,6.07
2022-08-23T09:23:05.908Z,6.43
2022-08-23T09:27:15.243Z,4.97
2022-08-23T09:31:43.172Z,5.83
2022-08-23T09:36:15.567Z,5.87
2022-08-23T09:40:38.948Z,5.10
2022-08-23T09:44:51.226Z,5.13
2022-08-23T09:49:01.829Z,4.20
2022-08-23T09:53:17.432Z,3.60
2022-08-23T09:57:30.665Z,4.27
2022-08-23T10:01:40.771Z,4.60
2022-08-23T10:05:53.025Z,4.90
2022-08-23T10:10:30.668Z,4.53
2022-08-23T10:14:40.368Z,5.17
2022-08-23T10:19:02.086Z,5.10
2022-08-23T10:23:22.273Z,4.77
2022-08-23T10:28:02.363Z,4.00
2022-08-23T10:32:26.485Z,4.47
2022-08-23T10:36:51.012Z,4.97
2022-08-23T10:41:16.006Z,5.00
2022-08-23T10:45:36.823Z,4.50
2022-08-23T10:49:54.327Z,4.00
2022-08-23T10:54:08.166Z,4.50
2022-08-23T10:58:26.690Z,4.27
2022-08-23T11:07:29.603Z,3.30
2022-08-23T11:11:48.225Z,4.00
2022-08-23T11:16:01.600Z,3.10
2022-08-23T11:20:15.528Z,3.73
2022-08-23T11:24:50.947Z,4.00
2022-08-23T11:29:31.305Z,4.10
2022-08-23T11:33:48.208Z,3.27
2022-08-23T11:38:04.992Z,4.07
2022-08-23T11:42:19.848Z,3.37
2022-08-23T11:46:36.271Z,4.13
2022-08-23T11:51:21.444Z,3.90
2022-08-23T11:56:18.346Z,4.03
2022-08-23T12:00:33.888Z,3.90
2022-08-23T12:04:55.886Z,4.60
2022-08-23T12:09:12.088Z,4.20
2022-08-23T12:13:55.988Z,3.97
2022-08-23T12:18:21.992Z,4.07
2022-08-23T12:22:58.485Z,3.53
2022-08-23T12:27:28.189Z,3.40
2022-08-23T12:31:46.049Z,3.40
2022-08-23T12:36:03.983Z,3.27
2022-08-23T12:40:25.248Z,3.37
2022-08-23T12:44:34.786Z,3.23
2022-08-23T12:48:49.125Z,3.57
2022-08-23T12:53:01.405Z,3.77
2022-08-23T12:57:19.344Z,3.53
2022-08-23T13:01:32.043Z,3.10
2022-08-23T13:05:45.936Z,3.20
2022-08-23T13:20:22.127Z,3.70
2022-08-23T13:25:28.205Z,3.47
2022-08-23T13:53:17.484Z,2.70
2022-08-23T14:07:07.548Z,2.87
2022-08-23T14:16:39.306Z,2.80
2022-08-23T14:20:53.888Z,2.47
2022-08-23T14:35:51.180Z,2.23
2022-08-23T14:41:08.928Z,2.50
2022-08-23T14:59:26.825Z,1.87
2022-08-23T15:03:36.361Z,1.90
2022-08-23T15:07:46.405Z,1.90
2022-08-23T15:12:57.201Z,1.80
2022-08-23T15:16:29.858Z,1.70
2022-08-23T15:20:41.528Z,2.30
2022-08-23T15:24:50.793Z,1.70
2022-08-23T15:29:01.928Z,1.50
2022-08-23T15:33:12.364Z,1.50
2022-08-23T15:37:22.985Z,1.70
2022-08-23T15:41:56.366Z,1.70
2022-08-23T15:55:22.407Z,2.30
2022-08-23T15:59:37.145Z,1.90
2022-08-23T16:09:03.147Z,1.87
2022-08-23T16:18:16.326Z,2.33
2022-08-23T16:22:51.306Z,1.97
2022-08-23T16:27:05.844Z,1.40
2022-08-23T16:31:16.859Z,1.00
2022-08-23T16:36:33.970Z,0.80
2022-08-23T16:41:15.985Z,1.40
2022-08-23T16:45:52.335Z,1.30
2022-08-23T18:08:36.188Z,0.80
2022-08-23T18:36:16.388Z,0.83
2022-08-23T19:01:02.350Z,0.90
